Time;durP1;ratioP1;P1;durP2;ratioP2;P2;SDS_P1;SDS_P2;PMS_P1;PMS_P2;Temp;Humidity;BMP_temperature;BMP_pressure;BME280_temperature;BME280_humidity;BME280_pressure;Samples;Min_cycle;Max_cycle;Signal;HPM_P1;HPM_P2
2022/06/09 00:01:28;;;;;;;9.05;2.55;;;;;;;25.65;38.91;101499.63;5114619;28;20038;-45
2022/06/09 00:04:26;;;;;;;7.78;2.22;;;;;;;25.76;39.16;101522.53;5115366;28;20019;-44
2022/06/09 00:07:02;;;;;;;7.72;2.60;;;;;;;25.61;39.05;101507.47;5115665;28;20027;-46
2022/06/09 00:09:52;;;;;;;7.15;2.40;;;;;;;25.66;39.22;101535.53;5115976;28;20034;-46
2022/06/09 00:12:20;;;;;;;7.38;2.10;;;;;;;25.59;39.16;101519.69;5097694;28;20451;-45
2022/06/09 00:14:49;;;;;;;9.70;2.40;;;;;;;25.66;39.50;101528.53;5115313;28;20027;-46
2022/06/09 00:17:18;;;;;;;9.05;2.55;;;;;;;25.63;39.21;101526.75;5114382;28;20089;-47
2022/06/09 00:19:46;;;;;;;8.70;2.55;;;;;;;25.62;39.40;101529.34;5114256;28;20027;-46
2022/06/09 00:22:15;;;;;;;6.35;1.95;;;;;;;25.55;39.47;101523.13;5115430;28;20426;-45
2022/06/09 00:24:43;;;;;;;11.30;2.83;;;;;;;25.60;39.27;101525.81;5114030;28;20028;-53
2022/06/09 00:27:12;;;;;;;5.60;1.70;;;;;;;25.71;38.99;101531.22;5115158;28;20032;-52
2022/06/09 00:29:41;;;;;;;10.55;2.60;;;;;;;25.63;39.17;101524.13;5115313;28;20031;-45
2022/06/09 00:32:10;;;;;;;7.45;1.95;;;;;;;25.58;39.28;101515.28;5114244;28;20031;-46
2022/06/09 00:34:39;;;;;;;8.75;2.30;;;;;;;25.65;39.34;101531.16;5113469;28;20028;-44
2022/06/09 00:37:07;;;;;;;7.85;2.10;;;;;;;25.60;39.29;101526.72;5097208;28;20106;-52
2022/06/09 00:39:36;;;;;;;7.85;2.35;;;;;;;25.55;39.43;101530.13;5113483;28;20541;-45
2022/06/09 00:42:05;;;;;;;9.25;2.22;;;;;;;25.50;39.25;101527.41;5115136;28;20028;-45
2022/06/09 00:44:33;;;;;;;9.02;2.38;;;;;;;25.53;39.68;101532.72;5114078;28;20024;-45
2022/06/09 00:47:26;;;;;;;9.50;2.95;;;;;;;25.57;39.55;101537.16;5115125;28;20384;-46
2022/06/09 00:50:01;;;;;;;8.45;2.38;;;;;;;25.52;39.49;101528.31;5115148;28;20051;-47
2022/06/09 00:52:33;;;;;;;10.38;2.53;;;;;;;25.52;39.43;101525.69;5115115;28;20488;-51
2022/06/09 00:55:05;;;;;;;8.85;2.55;;;;;;;25.53;39.56;101524.84;5097033;28;20054;-53
2022/06/09 00:57:38;;;;;;;7.88;2.78;;;;;;;25.58;39.49;101524.91;5113587;28;20392;-46
2022/06/09 01:00:12;;;;;;;8.30;2.40;;;;;;;25.55;39.52;101528.38;5114770;28;20020;-45
2022/06/09 01:02:41;;;;;;;6.28;2.20;;;;;;;25.52;39.53;101530.94;5113437;28;20042;-44
2022/06/09 01:05:10;;;;;;;9.85;2.60;;;;;;;25.47;39.51;101523.00;5113661;28;20059;-44
2022/06/09 01:07:42;;;;;;;8.13;2.17;;;;;;;25.43;39.26;101518.56;5114719;28;20500;-45
2022/06/09 01:10:10;;;;;;;7.25;2.10;;;;;;;25.40;39.79;101522.84;5113978;28;20036;-49
2022/06/09 01:12:42;;;;;;;8.10;2.20;;;;;;;25.46;39.64;101544.00;5112769;28;20031;-46
2022/06/09 01:15:16;;;;;;;7.57;2.42;;;;;;;25.46;39.69;101529.13;5079831;28;20036;-44
2022/06/09 01:17:53;;;;;;;8.68;2.10;;;;;;;25.43;39.52;101529.06;5112986;28;20063;-45
2022/06/09 01:20:31;;;;;;;8.13;2.22;;;;;;;25.38;39.50;101519.31;5114508;28;20019;-44
2022/06/09 01:23:23;;;;;;;9.98;2.50;;;;;;;25.40;39.71;101539.47;5113118;28;20103;-45
2022/06/09 01:26:29;;;;;;;9.27;2.40;;;;;;;25.41;39.43;101529.88;5111080;28;20096;-52
2022/06/09 01:29:16;;;;;;;6.90;2.00;;;;;;;25.43;39.88;101525.56;5104407;28;20038;-45
2022/06/09 01:31:54;;;;;;;9.40;2.75;;;;;;;25.39;39.69;101528.97;5110351;28;20035;-46
2022/06/09 01:34:39;;;;;;;6.65;1.98;;;;;;;25.38;39.50;101529.81;5113109;28;20034;-50
2022/06/09 01:37:13;;;;;;;8.35;1.83;;;;;;;25.38;39.56;101529.81;5112963;28;20020;-45
2022/06/09 01:40:01;;;;;;;7.47;2.00;;;;;;;25.20;39.66;101509.41;5095882;28;20024;-44
2022/06/09 01:42:33;;;;;;;10.02;2.92;;;;;;;25.37;39.56;101533.31;5114532;28;20035;-48
2022/06/09 01:45:03;;;;;;;9.75;2.20;;;;;;;25.36;39.70;101536.78;5113857;28;20036;-45
2022/06/09 01:47:42;;;;;;;9.02;2.85;;;;;;;25.34;39.79;101535.00;5113109;28;20077;-46
2022/06/09 01:50:15;;;;;;;8.65;2.08;;;;;;;25.35;39.66;101535.91;5113011;28;20472;-53
2022/06/09 01:52:44;;;;;;;7.97;2.25;;;;;;;25.31;39.73;101532.38;5112774;28;20050;-45
2022/06/09 01:55:17;;;;;;;7.28;1.77;;;;;;;25.35;39.52;101530.66;5112379;28;20453;-45
2022/06/09 01:57:46;;;;;;;8.15;2.28;;;;;;;25.31;39.64;101537.63;5114165;28;20073;-48
2022/06/09 02:00:17;;;;;;;7.97;2.13;;;;;;;25.32;39.73;101530.59;5113652;28;20035;-53
2022/06/09 02:03:08;;;;;;;9.32;2.20;;;;;;;25.34;40.07;101540.28;5112584;28;20024;-49
2022/06/09 02:05:40;;;;;;;8.10;2.25;;;;;;;25.27;39.92;101535.78;5113733;28;20039;-48
2022/06/09 02:08:10;;;;;;;9.05;2.33;;;;;;;25.27;39.81;101530.53;5113899;28;20024;-46
2022/06/09 02:10:42;;;;;;;10.27;2.47;;;;;;;25.33;39.66;101541.13;5112526;28;20486;-54
2022/06/09 02:13:22;;;;;;;8.20;2.38;;;;;;;25.31;39.56;101534.09;5113248;28;20035;-53
2022/06/09 02:15:53;;;;;;;7.88;2.28;;;;;;;25.34;39.71;101539.41;5112558;28;20059;-48
2022/06/09 02:18:24;;;;;;;7.07;2.25;;;;;;;25.31;39.54;101536.72;5112010;28;20484;-46
2022/06/09 02:21:00;;;;;;;8.85;2.10;;;;;;;25.23;39.67;101522.59;5113420;28;20061;-53
2022/06/09 02:23:28;;;;;;;7.60;2.22;;;;;;;25.29;39.90;101531.44;5112318;28;20073;-45
2022/06/09 02:25:57;;;;;;;8.07;2.00;;;;;;;25.28;39.74;101537.56;5113615;28;20053;-53
2022/06/09 02:28:25;;;;;;;10.05;2.47;;;;;;;25.28;39.67;101544.53;5113410;28;20055;-47
2022/06/09 02:30:54;;;;;;;8.35;2.08;;;;;;;25.28;39.92;101534.03;5113568;28;20047;-52
2022/06/09 02:33:22;;;;;;;6.28;2.10;;;;;;;25.26;39.48;101526.16;5113701;28;20023;-53
2022/06/09 02:35:51;;;;;;;7.18;2.08;;;;;;;25.24;39.59;101521.69;5112475;28;20058;-53
2022/06/09 02:38:21;;;;;;;10.60;2.30;;;;;;;25.22;39.64;101531.31;5111999;28;20027;-48
2022/06/09 02:40:50;;;;;;;6.22;2.08;;;;;;;25.20;39.79;101535.66;5113281;28;20043;-53
2022/06/09 02:43:19;;;;;;;13.18;2.97;;;;;;;25.21;40.02;101538.31;5113443;28;20384;-48
2022/06/09 02:45:46;;;;;;;8.55;2.40;;;;;;;25.20;39.97;101523.41;5113514;28;20038;-48
2022/06/09 02:48:16;;;;;;;6.78;1.98;;;;;;;25.25;40.01;101534.88;5113594;28;20024;-47
2022/06/09 02:50:46;;;;;;;11.45;2.58;;;;;;;25.22;40.03;101521.69;5113158;28;20055;-53
2022/06/09 02:53:16;;;;;;;6.43;2.13;;;;;;;25.22;39.66;101532.19;5113602;28;20024;-55
2022/06/09 02:55:44;;;;;;;8.80;2.05;;;;;;;25.26;39.65;101538.38;5114098;28;20032;-53
2022/06/09 02:58:13;;;;;;;7.68;2.25;;;;;;;25.19;39.77;101529.50;5113791;28;20028;-48
2022/06/09 03:00:42;;;;;;;7.68;2.63;;;;;;;25.20;39.68;101547.03;5115486;28;20024;-52
2022/06/09 03:03:14;;;;;;;6.88;1.95;;;;;;;25.18;39.76;101544.41;5116575;28;20023;-46
2022/06/09 03:05:44;;;;;;;8.40;1.90;;;;;;;25.23;39.76;101544.47;5116973;28;20028;-46
2022/06/09 03:08:15;;;;;;;8.02;2.00;;;;;;;25.24;39.49;101543.59;5116869;28;20031;-54
2022/06/09 03:10:44;;;;;;;8.80;2.53;;;;;;;25.22;39.62;101528.69;5116585;28;20047;-46
2022/06/09 03:13:12;;;;;;;6.88;2.05;;;;;;;25.24;39.92;101530.47;5116814;28;20132;-47
2022/06/09 03:15:41;;;;;;;7.95;2.08;;;;;;;25.22;39.61;101542.69;5116435;28;20051;-49
2022/06/09 03:18:12;;;;;;;6.55;1.98;;;;;;;25.23;39.57;101535.72;5116178;28;20067;-46
2022/06/09 03:20:41;;;;;;;7.95;2.55;;;;;;;25.03;39.68;101523.13;5116508;28;20028;-54
2022/06/09 03:23:10;;;;;;;9.75;2.17;;;;;;;25.17;39.59;101537.38;5116193;28;20411;-46
2022/06/09 03:25:38;;;;;;;10.73;2.28;;;;;;;25.08;39.92;101525.84;5116444;28;20035;-53
2022/06/09 03:28:07;;;;;;;8.63;2.22;;;;;;;25.22;39.76;101558.44;5115382;28;20119;-53
2022/06/09 03:30:36;;;;;;;11.23;3.13;;;;;;;25.14;40.07;101553.06;5116236;28;20051;-46
2022/06/09 03:33:05;;;;;;;9.70;2.55;;;;;;;25.13;39.86;101556.56;5116306;28;20027;-46
2022/06/09 03:35:33;;;;;;;8.75;2.10;;;;;;;24.96;40.02;101519.53;5115445;28;20427;-52
2022/06/09 03:38:02;;;;;;;7.35;1.90;;;;;;;25.13;39.91;101532.06;5116240;28;20119;-48
2022/06/09 03:40:31;;;;;;;9.13;2.55;;;;;;;25.18;39.52;101528.66;5115190;28;20032;-48
2022/06/09 03:43:02;;;;;;;11.32;3.22;;;;;;;25.14;39.48;101534.69;5114877;28;20024;-46
2022/06/09 03:45:32;;;;;;;9.35;2.40;;;;;;;25.15;39.74;101548.72;5115840;28;20031;-46
2022/06/09 03:48:00;;;;;;;8.82;2.15;;;;;;;25.13;40.12;101550.44;5115103;28;20055;-50
2022/06/09 03:50:30;;;;;;;7.35;1.98;;;;;;;25.16;39.63;101543.47;5114796;28;20055;-49
2022/06/09 03:52:59;;;;;;;6.97;1.98;;;;;;;25.14;40.09;101545.19;5116197;28;20023;-46
2022/06/09 03:55:27;;;;;;;8.27;1.80;;;;;;;25.16;39.84;101547.84;5115853;28;20034;-48
2022/06/09 03:57:55;;;;;;;12.15;2.60;;;;;;;24.97;40.18;101523.91;5114661;28;20028;-53
2022/06/09 04:00:27;;;;;;;6.53;2.15;;;;;;;25.14;40.04;101558.31;5115792;28;20069;-46
2022/06/09 04:02:55;;;;;;;8.00;2.13;;;;;;;25.07;39.94;101542.44;5116063;28;20023;-47
2022/06/09 04:05:23;;;;;;;6.70;2.10;;;;;;;25.13;39.75;101564.44;5115834;28;20028;-52
2022/06/09 04:07:51;;;;;;;8.88;2.08;;;;;;;25.13;39.68;101555.69;5115929;28;20024;-54
2022/06/09 04:10:23;;;;;;;6.80;2.25;;;;;;;25.12;40.08;101564.41;5114608;28;20031;-46
2022/06/09 04:12:52;;;;;;;9.05;2.45;;;;;;;25.14;39.88;101562.69;5115747;28;20023;-45
2022/06/09 04:15:21;;;;;;;9.55;2.95;;;;;;;25.14;39.75;101574.06;5115197;28;20047;-46
2022/06/09 04:17:51;;;;;;;9.10;2.42;;;;;;;25.10;39.87;101579.25;5115203;28;20073;-47
2022/06/09 04:20:22;;;;;;;8.82;2.72;;;;;;;25.05;39.65;101573.03;5115468;27;20023;-45
2022/06/09 04:22:51;;;;;;;6.95;2.05;;;;;;;25.06;40.05;101580.94;5116184;28;20028;-54
2022/06/09 04:25:20;;;;;;;7.75;1.70;;;;;;;25.09;39.92;101580.09;5114715;28;20034;-48
2022/06/09 04:27:49;;;;;;;8.77;2.05;;;;;;;25.06;39.72;101577.41;5115494;28;20032;-48
2022/06/09 04:30:18;;;;;;;7.57;1.90;;;;;;;25.10;39.91;101581.88;5115266;28;20030;-46
2022/06/09 04:32:46;;;;;;;6.32;2.15;;;;;;;25.04;39.81;101574.78;5113762;28;20408;-47
2022/06/09 04:35:15;;;;;;;8.10;2.00;;;;;;;24.99;39.80;101555.44;5115086;28;20453;-54
2022/06/09 04:38:04;;;;;;;7.53;2.10;;;;;;;25.05;39.77;101589.69;5115126;28;20031;-48
2022/06/09 04:40:35;;;;;;;6.53;1.63;;;;;;;25.10;39.71;101592.38;5115062;28;20024;-48
2022/06/09 04:43:05;;;;;;;5.72;1.73;;;;;;;25.13;39.92;101592.44;5097185;28;20028;-45
2022/06/09 04:45:34;;;;;;;9.50;2.45;;;;;;;25.14;39.49;101602.94;5114893;28;20377;-47
2022/06/09 04:48:02;;;;;;;9.05;2.42;;;;;;;25.10;39.45;101600.25;5115027;28;20388;-50
2022/06/09 04:50:31;;;;;;;6.65;1.85;;;;;;;25.11;39.85;101595.00;5113829;28;20031;-53
2022/06/09 04:52:59;;;;;;;6.65;2.03;;;;;;;25.03;39.87;101594.88;5113353;28;20085;-48
2022/06/09 04:55:28;;;;;;;7.25;1.88;;;;;;;25.06;39.65;101607.19;5114476;28;20034;-50
2022/06/09 04:57:56;;;;;;;9.57;2.55;;;;;;;25.03;39.82;101605.38;5114767;28;20035;-47
2022/06/09 05:00:26;;;;;;;11.93;3.03;;;;;;;25.02;39.67;101615.84;5113141;28;20104;-53
2022/06/09 05:02:56;;;;;;;15.68;2.55;;;;;;;24.98;39.91;101612.31;5113287;28;20114;-46
2022/06/09 05:05:29;;;;;;;13.60;2.55;;;;;;;25.01;39.80;101624.59;5114624;28;20146;-53
2022/06/09 05:07:58;;;;;;;5.70;2.00;;;;;;;24.95;39.88;101625.38;5114740;28;20381;-49
2022/06/09 05:10:27;;;;;;;13.52;2.65;;;;;;;25.03;39.63;101625.50;5114346;28;20038;-53
2022/06/09 05:12:56;;;;;;;13.63;2.90;;;;;;;25.02;39.83;101626.38;5114262;28;20023;-46
2022/06/09 05:15:26;;;;;;;17.52;2.35;;;;;;;24.89;39.94;101601.63;5113400;28;20048;-46
2022/06/09 05:17:57;;;;;;;14.80;2.90;;;;;;;24.93;39.94;101621.81;5113080;28;20024;-46
2022/06/09 05:20:25;;;;;;;9.20;2.33;;;;;;;25.03;39.75;101628.13;5113938;28;20453;-52
2022/06/09 05:22:53;;;;;;;8.82;2.10;;;;;;;25.09;39.66;101632.59;5114380;28;20147;-46
2022/06/09 05:25:21;;;;;;;12.60;2.53;;;;;;;25.12;39.75;101630.91;5113891;28;20063;-47
2022/06/09 05:27:50;;;;;;;9.57;1.95;;;;;;;25.04;40.05;101627.28;5114269;28;20038;-53
2022/06/09 05:30:21;;;;;;;14.80;2.30;;;;;;;25.20;39.71;101636.31;5114296;28;20031;-47
2022/06/09 05:32:49;;;;;;;13.48;2.30;;;;;;;25.33;39.28;101638.28;5114173;28;20381;-52
2022/06/09 05:35:18;;;;;;;10.48;1.90;;;;;;;25.38;39.45;101646.28;5114241;28;20388;-53
2022/06/09 05:46:09;;;;;;;9.95;2.15;;;;;;;25.53;39.27;101656.19;5113179;28;20047;-52
2022/06/09 05:48:37;;;;;;;6.18;1.90;;;;;;;25.60;39.06;101658.06;5113751;28;20024;-49
2022/06/09 05:51:06;;;;;;;6.95;1.80;;;;;;;25.64;39.33;101659.00;5112502;28;20111;-46
2022/06/09 05:53:35;;;;;;;13.30;2.17;;;;;;;25.69;38.98;101659.97;5113915;28;20023;-52
2022/06/09 05:56:05;;;;;;;8.05;2.13;;;;;;;25.71;39.23;101662.63;5113760;28;20429;-54
2022/06/09 05:58:33;;;;;;;27.10;2.13;;;;;;;25.72;39.11;101654.78;5113803;28;20081;-46
2022/06/09 06:01:04;;;;;;;10.25;1.98;;;;;;;25.82;38.92;101657.53;5111850;28;20441;-49
2022/06/09 06:03:32;;;;;;;9.07;1.83;;;;;;;25.85;39.06;101658.47;5113895;28;20070;-49
2022/06/09 06:06:41;;;;;;;8.60;1.98;;;;;;;25.90;39.06;101662.06;5114033;28;20085;-51
2022/06/09 06:08:47;;;;;;;8.60;1.80;;;;;;;25.92;39.09;101660.34;5110032;28;20042;-45
2022/06/09 06:11:15;;;;;;;7.72;1.52;;;;;;;26.00;39.02;101657.84;5114187;28;20032;-45
2022/06/09 06:13:45;;;;;;;6.78;1.65;;;;;;;26.04;39.23;101662.28;5113898;28;20034;-49
2022/06/09 06:16:14;;;;;;;5.43;1.92;;;;;;;26.07;39.29;101669.31;5113248;28;20493;-48
2022/06/09 06:18:42;;;;;;;9.07;2.53;;;;;;;26.00;39.38;101646.41;5113292;28;20036;-46
2022/06/09 06:21:10;;;;;;;7.32;2.15;;;;;;;26.12;39.00;101661.53;5113497;28;20034;-47
2022/06/09 06:23:40;;;;;;;6.45;1.77;;;;;;;26.22;39.02;101671.34;5113511;28;20031;-54
2022/06/09 06:26:08;;;;;;;5.53;1.67;;;;;;;26.21;39.03;101664.31;5113716;28;20024;-45
2022/06/09 06:28:36;;;;;;;10.77;2.03;;;;;;;26.32;38.87;101670.59;5113859;28;20020;-46
2022/06/09 06:31:05;;;;;;;9.25;2.15;;;;;;;26.32;38.94;101674.97;5113550;28;20027;-54
2022/06/09 06:33:33;;;;;;;11.35;2.10;;;;;;;26.42;38.91;101679.50;5115478;28;20039;-53
2022/06/09 06:36:00;;;;;;;7.50;1.85;;;;;;;26.35;39.24;101681.19;5117018;28;20035;-46
2022/06/09 06:38:29;;;;;;;5.40;1.60;;;;;;;26.36;39.05;101684.69;5117501;28;20102;-52
2022/06/09 06:40:57;;;;;;;7.03;2.03;;;;;;;26.46;38.69;101685.69;5117344;28;20024;-49
2022/06/09 06:43:26;;;;;;;7.00;1.77;;;;;;;26.45;38.83;101689.19;5117317;28;20028;-53
2022/06/09 06:45:54;;;;;;;7.90;1.75;;;;;;;26.48;38.76;101687.47;5116987;28;20027;-53
2022/06/09 06:48:23;;;;;;;11.00;2.47;;;;;;;26.48;38.57;101697.13;5117464;28;20032;-53
2022/06/09 06:50:51;;;;;;;8.27;2.22;;;;;;;26.46;38.96;101697.13;5117721;28;20059;-48
2022/06/09 06:53:20;;;;;;;5.93;1.83;;;;;;;26.45;38.49;101697.97;5117380;28;20020;-46
2022/06/09 06:55:48;;;;;;;7.10;2.13;;;;;;;26.48;38.58;101698.00;5117141;28;20058;-54
2022/06/09 06:58:16;;;;;;;8.30;2.13;;;;;;;26.49;38.71;101699.75;5117172;27;20120;-52
2022/06/09 07:00:45;;;;;;;11.07;2.00;;;;;;;26.55;38.72;101704.25;5116773;28;20108;-52
2022/06/09 07:03:14;;;;;;;8.50;1.95;;;;;;;26.51;38.75;101703.31;5117016;28;20114;-48
2022/06/09 07:05:42;;;;;;;8.20;2.25;;;;;;;26.57;38.42;101712.16;5116973;28;20354;-48
2022/06/09 07:08:15;;;;;;;7.93;2.28;;;;;;;26.64;38.67;101724.56;5117050;28;20028;-48
2022/06/09 07:10:45;;;;;;;9.00;2.28;;;;;;;26.52;38.57;101715.59;5115190;28;20450;-53
2022/06/09 07:13:13;;;;;;;8.88;2.30;;;;;;;26.61;38.27;101720.09;5116456;28;20020;-52
2022/06/09 07:15:42;;;;;;;7.88;2.38;;;;;;;26.61;38.37;101727.13;5116098;28;20079;-50
2022/06/09 07:18:11;;;;;;;9.15;2.35;;;;;;;26.63;38.10;101728.91;5116643;28;20115;-46
2022/06/09 07:20:41;;;;;;;9.93;2.60;;;;;;;26.65;38.20;101731.56;5116880;28;20415;-52
2022/06/09 07:23:10;;;;;;;8.52;1.75;;;;;;;26.68;38.38;101736.88;5116831;28;20028;-54
2022/06/09 07:25:38;;;;;;;8.82;2.40;;;;;;;26.72;38.29;101737.81;5115507;28;20027;-47
2022/06/09 07:28:07;;;;;;;7.47;2.28;;;;;;;26.69;38.24;101739.53;5116441;28;20051;-50
2022/06/09 07:30:36;;;;;;;5.60;1.80;;;;;;;26.72;38.40;101746.56;5116243;28;20477;-48
2022/06/09 07:33:05;;;;;;;6.43;1.75;;;;;;;26.69;38.24;101742.16;5116568;28;20026;-49
2022/06/09 07:35:35;;;;;;;8.40;2.28;;;;;;;26.75;38.18;101745.72;5116168;28;20080;-52
2022/06/09 07:38:05;;;;;;;10.15;2.25;;;;;;;26.76;38.10;101751.03;5116178;28;20026;-53
2022/06/09 07:40:35;;;;;;;8.68;2.10;;;;;;;26.77;38.02;101750.16;5116148;28;20031;-54
2022/06/09 07:43:04;;;;;;;7.78;2.25;;;;;;;26.81;37.89;101757.25;5116346;28;20024;-53
2022/06/09 07:45:33;;;;;;;9.05;2.20;;;;;;;26.80;38.00;101752.88;5115893;28;20027;-48
2022/06/09 07:48:02;;;;;;;6.45;1.85;;;;;;;26.86;37.78;101764.34;5115592;28;20023;-53
2022/06/09 07:50:30;;;;;;;7.95;2.13;;;;;;;26.86;37.80;101764.34;5115765;28;20031;-53
2022/06/09 07:53:01;;;;;;;7.13;1.95;;;;;;;26.85;37.73;101750.31;5115691;28;20069;-54
2022/06/09 07:55:30;;;;;;;7.43;1.92;;;;;;;26.89;37.63;101762.63;5115802;28;20430;-49
2022/06/09 07:57:57;;;;;;;10.82;2.70;;;;;;;26.90;37.40;101768.78;5116140;28;20024;-53
2022/06/09 08:00:27;;;;;;;8.02;2.15;;;;;;;26.93;37.50;101764.44;5114588;28;20381;-50
2022/06/09 08:02:55;;;;;;;9.70;2.00;;;;;;;26.97;37.50;101768.88;5115694;28;20050;-51
2022/06/09 08:05:26;;;;;;;9.52;2.55;;;;;;;26.99;37.44;101769.78;5115687;28;20039;-48
2022/06/09 08:07:55;;;;;;;7.63;1.92;;;;;;;27.01;37.56;101769.78;5114067;28;20059;-49
2022/06/09 08:10:26;;;;;;;8.38;1.90;;;;;;;27.05;37.37;101776.00;5115558;28;20023;-49
2022/06/09 08:12:58;;;;;;;7.63;1.73;;;;;;;27.02;37.33;101776.84;5115621;28;20528;-53
2022/06/09 08:15:27;;;;;;;8.20;2.13;;;;;;;27.11;37.48;101783.97;5115258;28;20881;-47
2022/06/09 08:17:57;;;;;;;9.57;2.25;;;;;;;27.15;37.03;101783.16;5115382;28;20374;-52
2022/06/09 08:20:28;;;;;;;7.88;1.80;;;;;;;27.12;37.11;101775.19;5115407;28;20019;-52
2022/06/09 08:23:10;;;;;;;9.77;2.10;;;;;;;27.18;37.03;101780.56;5115550;28;20024;-54
2022/06/09 08:25:40;;;;;;;8.20;2.17;;;;;;;27.17;37.02;101783.16;5115401;28;20030;-46
2022/06/09 08:28:09;;;;;;;9.90;2.08;;;;;;;27.17;37.18;101783.16;5115642;28;20020;-49
2022/06/09 08:30:39;;;;;;;6.75;1.95;;;;;;;27.17;37.20;101784.06;5115027;28;20407;-45
2022/06/09 08:33:08;;;;;;;8.82;2.47;;;;;;;27.19;37.27;101790.22;5115584;28;20042;-54
2022/06/09 08:35:36;;;;;;;8.02;1.75;;;;;;;27.20;37.15;101780.56;5115148;28;20019;-53
2022/06/09 08:38:07;;;;;;;8.90;2.05;;;;;;;27.25;37.17;101777.13;5114960;27;20092;-52
2022/06/09 08:41:00;;;;;;;9.98;2.33;;;;;;;26.97;35.91;101781.19;5114976;28;20477;-53
2022/06/09 08:43:49;;;;;;;16.67;3.15;;;;;;;26.52;36.24;101793.66;5113862;28;20073;-48
2022/06/09 08:46:24;;;;;;;11.98;2.83;;;;;;;26.20;37.41;101789.66;5115062;28;20031;-53
2022/06/09 08:48:55;;;;;;;12.95;2.85;;;;;;;26.01;37.54;101785.81;5114062;28;20034;-54
2022/06/09 08:51:35;;;;;;;12.20;2.88;;;;;;;25.78;37.82;101788.03;5114012;28;20469;-49
2022/06/09 08:54:16;;;;;;;17.25;3.28;;;;;;;25.61;38.29;101785.97;5114799;28;20057;-50
2022/06/09 08:56:45;;;;;;;7.32;2.10;;;;;;;25.62;38.06;101786.84;5113815;28;20035;-48
2022/06/09 08:59:18;;;;;;;11.38;3.15;;;;;;;25.52;38.69;101780.50;5114911;28;20020;-53
2022/06/09 09:01:51;;;;;;;11.80;2.40;;;;;;;25.47;38.76;101790.06;5113677;28;20039;-46
2022/06/09 09:04:40;;;;;;;13.90;2.85;;;;;;;25.44;39.20;101790.00;5113364;28;20070;-44
2022/06/09 09:07:13;;;;;;;11.65;2.80;;;;;;;25.36;39.04;101799.41;5114704;28;20072;-45
2022/06/09 09:09:41;;;;;;;10.48;2.63;;;;;;;25.07;39.44;101797.06;5114554;28;20027;-53
2022/06/09 09:12:33;;;;;;;11.52;3.00;;;;;;;25.28;39.54;101805.41;5114557;28;20031;-48
2022/06/09 09:15:11;;;;;;;13.88;2.70;;;;;;;25.20;39.04;101803.47;5111032;28;20031;-45
2022/06/09 09:17:43;;;;;;;10.85;2.30;;;;;;;25.28;39.07;101802.78;5114447;28;20030;-46
2022/06/09 09:20:21;;;;;;;15.75;3.25;;;;;;;25.28;39.08;101791.38;5114615;28;20027;-46
2022/06/09 09:23:09;;;;;;;11.07;2.70;;;;;;;25.19;39.26;101802.59;5114377;28;20027;-47
2022/06/09 09:25:50;;;;;;;10.13;2.60;;;;;;;25.20;39.68;101798.25;5105984;28;20129;-46
2022/06/09 09:28:22;;;;;;;11.18;2.58;;;;;;;25.38;38.80;101795.09;5113742;28;20475;-46
2022/06/09 09:31:16;;;;;;;11.05;1.88;;;;;;;25.32;39.03;101793.22;5114141;28;20420;-49
2022/06/09 09:33:46;;;;;;;13.70;3.17;;;;;;;25.51;38.76;101798.88;5109952;28;20473;-47
2022/06/09 09:36:29;;;;;;;12.00;2.45;;;;;;;25.58;38.88;101791.16;5113977;28;20156;-52
2022/06/09 09:39:03;;;;;;;8.57;2.17;;;;;;;25.46;39.55;101801.44;5114262;27;20024;-54
2022/06/09 09:41:35;;;;;;;9.43;2.55;;;;;;;25.50;39.19;101786.59;5114348;28;20027;-45
2022/06/09 09:44:23;;;;;;;10.60;2.28;;;;;;;25.53;39.32;101803.31;5113774;28;20024;-48
2022/06/09 09:46:55;;;;;;;11.40;2.47;;;;;;;25.21;39.54;101800.00;5104864;28;20040;-53
2022/06/09 09:49:34;;;;;;;11.15;2.95;;;;;;;25.01;40.35;101803.97;5113933;28;20050;-45
2022/06/09 09:52:03;;;;;;;11.35;2.15;;;;;;;24.94;40.60;101803.78;5112467;28;20034;-46
2022/06/09 09:54:38;;;;;;;13.20;2.72;;;;;;;24.80;40.78;101806.13;5112767;28;20473;-48
2022/06/09 09:57:16;;;;;;;11.80;2.90;;;;;;;24.88;40.80;101802.81;5113737;28;20034;-53
2022/06/09 09:59:52;;;;;;;9.43;2.30;;;;;;;24.92;40.44;101806.41;5114276;28;20415;-55
2022/06/09 10:08:36;;;;;;;12.48;2.40;;;;;;;24.79;41.08;101812.22;5111390;28;20106;-52
2022/06/09 10:11:53;;;;;;;9.68;2.42;;;;;;;24.62;41.03;101807.44;5112780;28;20036;-53
2022/06/09 10:13:55;;;;;;;7.40;2.05;;;;;;;24.71;40.57;101809.44;5117922;28;20032;-52
2022/06/09 10:16:24;;;;;;;10.98;2.50;;;;;;;24.77;41.11;101811.28;5117516;28;20442;-52
2022/06/09 10:18:55;;;;;;;12.57;2.78;;;;;;;24.77;40.63;101813.91;5116707;28;20024;-48
2022/06/09 10:21:24;;;;;;;13.13;2.75;;;;;;;24.81;41.02;101803.53;5116666;28;20099;-45
2022/06/09 10:23:56;;;;;;;9.85;2.20;;;;;;;24.82;40.44;101817.53;5116640;28;20020;-47
2022/06/09 10:26:29;;;;;;;6.10;2.03;;;;;;;24.63;40.62;101813.56;5117690;28;20030;-48
2022/06/09 10:28:59;;;;;;;18.00;3.58;;;;;;;24.60;41.06;101818.72;5117709;28;20031;-48
2022/06/09 10:31:49;;;;;;;7.50;2.00;;;;;;;24.69;40.98;101822.44;5116430;28;20027;-53
2022/06/09 10:34:55;;;;;;;6.13;1.73;;;;;;;24.73;40.43;101816.47;5110239;28;20043;-46
2022/06/09 10:37:43;;;;;;;10.43;2.17;;;;;;;24.50;41.13;101828.09;5113162;28;20038;-49
2022/06/09 10:40:34;;;;;;;12.43;2.47;;;;;;;24.26;40.51;101822.28;5117540;28;20028;-47
2022/06/09 10:43:25;;;;;;;11.77;3.13;;;;;;;24.11;41.12;101825.44;5115951;28;20024;-48
2022/06/09 10:46:31;;;;;;;11.10;2.25;;;;;;;24.25;40.34;101833.63;5108322;28;20040;-53
2022/06/09 10:55:20;;;;;;;9.38;1.90;;;;;;;24.26;40.52;101832.78;5117042;27;20028;-49
2022/06/09 10:58:10;;;;;;;12.02;2.92;;;;;;;24.21;41.20;101829.19;5113463;28;20389;-49
2022/06/09 11:00:45;;;;;;;12.10;2.55;;;;;;;24.16;40.39;101822.91;5110275;28;20444;-53
2022/06/09 11:03:18;;;;;;;10.60;2.97;;;;;;;24.18;39.77;101820.31;5117118;28;20392;-49
2022/06/09 11:05:55;;;;;;;7.80;1.77;;;;;;;24.25;39.91;101828.38;5115760;28;20401;-47
2022/06/09 11:08:25;;;;;;;12.40;1.55;;;;;;;24.28;39.05;101830.22;5115657;28;20521;-52
2022/06/09 11:11:06;;;;;;;8.18;1.65;;;;;;;24.17;39.86;101829.03;5117212;28;20034;-43
2022/06/09 11:14:00;;;;;;;9.40;2.40;;;;;;;24.27;40.22;101803.09;5116535;28;20449;-53
2022/06/09 11:17:00;;;;;;;12.25;3.08;;;;;;;24.25;40.17;101810.03;5116558;28;20047;-51
2022/06/09 11:19:47;;;;;;;11.00;2.15;;;;;;;24.20;40.41;101832.63;5109229;28;20430;-44
2022/06/09 11:22:23;;;;;;;8.68;1.92;;;;;;;24.15;40.24;101836.00;5113354;28;20084;-44
2022/06/09 11:25:22;;;;;;;11.52;2.33;;;;;;;24.18;40.83;101836.03;5114939;28;20106;-47
2022/06/09 11:27:58;;;;;;;16.90;2.70;;;;;;;24.18;40.18;101822.94;5112680;28;20043;-51
2022/06/09 11:30:50;;;;;;;10.73;2.00;;;;;;;24.06;40.81;101827.03;5116593;28;20019;-52
2022/06/09 11:33:48;;;;;;;14.55;2.75;;;;;;;24.15;40.59;101834.25;5111900;28;20477;-46
2022/06/09 11:36:20;;;;;;;6.65;1.67;;;;;;;24.17;39.74;101832.56;5112580;28;20393;-48
2022/06/09 11:38:52;;;;;;;7.00;1.70;;;;;;;24.14;39.20;101828.97;5116269;28;20077;-47
2022/06/09 11:41:42;;;;;;;7.15;1.65;;;;;;;24.25;40.19;101831.00;5116299;28;20116;-52
2022/06/09 11:44:23;;;;;;;7.18;1.90;;;;;;;24.27;39.70;101831.94;5116058;28;20059;-47
2022/06/09 11:46:54;;;;;;;9.30;2.28;;;;;;;24.23;39.62;101829.19;5116267;28;20513;-46
2022/06/09 11:49:37;;;;;;;6.50;1.65;;;;;;;24.17;40.01;101819.44;5116063;28;20378;-48
2022/06/09 11:52:09;;;;;;;11.93;2.33;;;;;;;24.14;40.44;101821.97;5115133;28;20023;-46
2022/06/09 11:54:40;;;;;;;7.55;1.80;;;;;;;24.31;40.37;101835.53;5115997;27;20028;-47
2022/06/09 11:57:36;;;;;;;10.43;1.77;;;;;;;24.36;40.45;101835.66;5116029;27;20461;-45
2022/06/09 12:00:05;;;;;;;11.68;1.90;;;;;;;24.49;40.03;101842.09;5116079;28;20080;-45
2022/06/09 12:02:53;;;;;;;17.45;3.00;;;;;;;24.38;42.83;101840.06;5114821;28;20020;-45
2022/06/09 12:05:24;;;;;;;15.32;2.78;;;;;;;24.42;43.56;101844.56;5112211;28;20043;-46
2022/06/09 12:08:13;;;;;;;25.95;3.72;;;;;;;24.37;43.93;101846.16;5114371;28;20028;-45
2022/06/09 12:10:46;;;;;;;17.55;3.78;;;;;;;24.25;43.81;101843.25;5113866;28;20028;-46